createdAt,value
2019-06-20T00:00:20.890Z,27.43
2019-06-20T00:01:20.488Z,27.45
2019-06-20T00:02:20.085Z,27.46
2019-06-20T00:03:19.605Z,27.45
2019-06-20T00:04:19.215Z,27.46
2019-06-20T00:05:18.775Z,27.45
2019-06-20T00:06:18.369Z,27.45
2019-06-20T00:07:18.933Z,27.45
2019-06-20T00:08:18.126Z,27.46
2019-06-20T00:09:17.720Z,27.45
2019-06-20T00:10:17.342Z,27.47
2019-06-20T00:11:16.971Z,27.50
2019-06-20T00:12:16.563Z,27.49
2019-06-20T00:13:16.304Z,27.50
2019-06-20T00:14:15.814Z,27.51
2019-06-20T00:15:15.375Z,27.49
2019-06-20T00:16:14.935Z,27.48
2019-06-20T00:17:14.527Z,27.49
2019-06-20T00:18:14.088Z,27.48
2019-06-20T00:19:13.683Z,27.49
2019-06-20T00:20:13.285Z,27.50
2019-06-20T00:21:12.853Z,27.48
2019-06-20T00:22:12.544Z,27.47
2019-06-20T00:23:12.114Z,27.46
2019-06-20T00:24:11.652Z,27.48
2019-06-20T00:25:11.343Z,27.47
2019-06-20T00:26:10.908Z,27.47
2019-06-20T00:27:10.456Z,27.48
2019-06-20T00:28:10.101Z,27.48
2019-06-20T00:29:10.192Z,27.47
2019-06-20T00:30:09.522Z,27.48
2019-06-20T00:31:09.081Z,27.47
2019-06-20T00:32:08.694Z,27.47
2019-06-20T00:33:08.230Z,27.47
2019-06-20T00:34:07.801Z,27.46
2019-06-20T00:35:07.393Z,27.47
2019-06-20T00:36:06.960Z,27.47
2019-06-20T00:37:06.609Z,27.47
2019-06-20T00:38:06.159Z,27.46
2019-06-20T00:39:05.678Z,27.46
2019-06-20T00:40:05.272Z,27.47
2019-06-20T00:41:04.824Z,27.46
2019-06-20T00:42:07.375Z,27.45
2019-06-20T00:43:16.906Z,27.46
2019-06-20T00:44:05.782Z,27.46
2019-06-20T00:45:05.418Z,27.46
2019-06-20T00:46:05.075Z,27.47
2019-06-20T00:47:04.582Z,27.46
2019-06-20T00:48:04.134Z,27.45
2019-06-20T00:49:03.698Z,27.46
2019-06-20T00:50:03.364Z,27.47
2019-06-20T00:51:02.813Z,27.46
2019-06-20T00:52:02.408Z,27.45
2019-06-20T00:53:02.072Z,27.46
2019-06-20T00:54:01.666Z,27.44
2019-06-20T00:55:01.228Z,27.44
2019-06-20T00:56:00.779Z,27.43
2019-06-20T00:57:00.410Z,27.44
2019-06-20T00:58:00.004Z,27.42
2019-06-20T00:58:59.515Z,27.40
2019-06-20T00:59:59.073Z,27.41
2019-06-20T01:00:58.727Z,27.41
2019-06-20T01:01:58.191Z,27.41
2019-06-20T01:02:57.775Z,27.41
2019-06-20T01:03:57.406Z,27.42
2019-06-20T01:04:56.948Z,27.41
2019-06-20T01:05:56.540Z,27.41
2019-06-20T01:06:56.113Z,27.42
2019-06-20T01:07:55.697Z,27.42
2019-06-20T01:08:55.278Z,27.41
2019-06-20T01:09:54.848Z,27.40
2019-06-20T01:10:54.416Z,27.41
2019-06-20T01:11:54.001Z,27.39
2019-06-20T01:12:53.517Z,27.38
2019-06-20T01:13:53.091Z,27.39
2019-06-20T01:14:52.656Z,27.40
2019-06-20T01:15:52.244Z,27.38
2019-06-20T01:16:51.880Z,27.37
2019-06-20T01:17:51.504Z,27.40
2019-06-20T01:18:51.050Z,27.38
2019-06-20T01:19:50.605Z,27.38
2019-06-20T01:20:50.169Z,27.39
2019-06-20T01:21:51.531Z,27.38
2019-06-20T01:22:50.530Z,27.37
2019-06-20T01:23:50.059Z,27.38
2019-06-20T01:24:49.698Z,27.38
2019-06-20T01:25:49.280Z,27.38
2019-06-20T01:26:48.876Z,27.38
2019-06-20T01:27:48.430Z,27.38
2019-06-20T01:28:48.022Z,27.36
2019-06-20T01:29:47.579Z,27.37
2019-06-20T01:30:47.177Z,27.38
2019-06-20T01:31:46.783Z,27.37
2019-06-20T01:32:46.438Z,27.37
2019-06-20T01:33:46.075Z,27.37
2019-06-20T01:34:45.609Z,27.36
2019-06-20T01:35:45.169Z,27.36
2019-06-20T01:36:46.548Z,27.34
2019-06-20T01:37:45.561Z,27.36
2019-06-20T01:38:45.128Z,27.37
2019-06-20T01:39:44.694Z,27.36
2019-06-20T01:40:44.225Z,27.36
2019-06-20T01:41:43.833Z,27.35
2019-06-20T01:42:43.405Z,27.36
2019-06-20T01:43:50.664Z,27.37
2019-06-20T01:44:42.505Z,27.35
2019-06-20T01:45:42.077Z,27.35
2019-06-20T01:46:41.669Z,27.35
2019-06-20T01:47:41.222Z,27.35
2019-06-20T01:48:40.782Z,27.33
2019-06-20T01:49:40.307Z,27.34
2019-06-20T01:50:39.901Z,27.35
2019-06-20T01:51:39.458Z,27.36
2019-06-20T01:52:39.011Z,27.35
2019-06-20T01:53:38.681Z,27.34
2019-06-20T01:54:38.268Z,27.35
2019-06-20T01:55:37.861Z,27.34
2019-06-20T01:56:37.523Z,27.34
2019-06-20T01:57:37.076Z,27.34
2019-06-20T01:58:36.625Z,27.34
2019-06-20T01:59:36.343Z,27.33
2019-06-20T02:00:35.861Z,27.32
2019-06-20T02:01:35.467Z,27.34
2019-06-20T02:02:35.058Z,27.32
2019-06-20T02:03:34.600Z,27.33
2019-06-20T02:04:34.216Z,27.33
2019-06-20T02:05:33.784Z,27.34
2019-06-20T02:06:33.340Z,27.33
2019-06-20T02:07:32.955Z,27.32
2019-06-20T02:08:32.540Z,27.33
2019-06-20T02:09:32.064Z,27.32
2019-06-20T02:10:31.731Z,27.31
2019-06-20T02:11:31.278Z,27.32
2019-06-20T02:12:30.840Z,27.32
2019-06-20T02:13:30.446Z,27.31
2019-06-20T02:14:29.962Z,27.31
2019-06-20T02:15:29.529Z,27.31
2019-06-20T02:16:29.096Z,27.31
2019-06-20T02:17:28.706Z,27.31
2019-06-20T02:18:28.360Z,27.30
2019-06-20T02:19:27.918Z,27.31
2019-06-20T02:20:27.526Z,27.30
2019-06-20T02:21:27.168Z,27.31
2019-06-20T02:22:26.809Z,27.31
2019-06-20T02:23:26.398Z,27.30
2019-06-20T02:24:25.965Z,27.29
2019-06-20T02:25:25.535Z,27.28
2019-06-20T02:26:25.155Z,27.31
2019-06-20T02:27:24.678Z,27.28
2019-06-20T02:28:24.309Z,27.29
2019-06-20T02:29:23.827Z,27.29
2019-06-20T02:30:23.454Z,27.30
2019-06-20T02:31:22.983Z,27.29
2019-06-20T02:32:22.551Z,27.28
2019-06-20T02:33:22.160Z,27.28
2019-06-20T02:34:21.803Z,27.29
2019-06-20T02:35:21.435Z,27.28
2019-06-20T02:36:20.995Z,27.28
2019-06-20T02:37:20.535Z,27.28
2019-06-20T02:38:20.186Z,27.27
2019-06-20T02:40:19.330Z,27.27
2019-06-20T02:41:18.908Z,27.27
2019-06-20T02:42:18.484Z,27.27
2019-06-20T02:43:18.040Z,27.27
2019-06-20T02:44:29.816Z,27.26
2019-06-20T02:45:17.239Z,27.28
2019-06-20T02:46:16.814Z,27.26
2019-06-20T02:47:16.524Z,27.27
2019-06-20T02:48:16.087Z,27.28
2019-06-20T02:49:15.665Z,27.27
2019-06-20T02:50:15.234Z,27.26
2019-06-20T02:51:14.848Z,27.26
2019-06-20T02:52:14.422Z,27.28
2019-06-20T02:53:13.983Z,27.27
2019-06-20T02:54:13.559Z,27.26
2019-06-20T02:55:13.087Z,27.26
2019-06-20T02:56:12.733Z,27.27
2019-06-20T02:57:12.263Z,27.27
2019-06-20T02:58:11.798Z,27.27
2019-06-20T02:59:11.510Z,27.26
2019-06-20T03:00:11.056Z,27.27
2019-06-20T03:01:13.997Z,27.26
2019-06-20T03:02:12.661Z,27.26
2019-06-20T03:03:12.277Z,27.26
2019-06-20T03:04:11.897Z,27.27
2019-06-20T03:05:11.424Z,27.26
2019-06-20T03:06:11.024Z,27.25
2019-06-20T03:07:10.625Z,27.25
2019-06-20T03:08:10.140Z,27.25
2019-06-20T03:09:09.747Z,27.26
2019-06-20T03:10:09.318Z,27.24
2019-06-20T03:11:10.815Z,27.25
2019-06-20T03:12:09.807Z,27.24
2019-06-20T03:13:09.652Z,27.24
2019-06-20T03:14:09.011Z,27.25
2019-06-20T03:15:08.676Z,27.25
2019-06-20T03:16:08.153Z,27.24
2019-06-20T03:17:07.882Z,27.26
2019-06-20T03:18:07.401Z,27.25
2019-06-20T03:19:06.955Z,27.24
2019-06-20T03:20:06.582Z,27.24
2019-06-20T03:21:06.084Z,27.25
2019-06-20T03:22:05.774Z,27.24
2019-06-20T03:23:05.394Z,27.23
2019-06-20T03:24:04.935Z,27.23
2019-06-20T03:25:04.562Z,27.23
2019-06-20T03:26:04.063Z,27.23
2019-06-20T03:27:03.568Z,27.24
2019-06-20T03:28:03.188Z,27.22
2019-06-20T03:29:02.718Z,27.23
2019-06-20T03:30:02.463Z,27.23
2019-06-20T03:31:01.966Z,27.22
2019-06-20T03:32:01.569Z,27.23
2019-06-20T03:33:01.384Z,27.21
2019-06-20T03:34:00.860Z,27.23
2019-06-20T03:35:00.456Z,27.23
2019-06-20T03:36:00.023Z,27.24
2019-06-20T03:36:59.543Z,27.23
2019-06-20T03:37:59.136Z,27.23
2019-06-20T03:38:58.674Z,27.23
2019-06-20T03:39:58.251Z,27.24
2019-06-20T03:40:57.866Z,27.22
2019-06-20T03:41:57.438Z,27.23
2019-06-20T03:42:57.017Z,27.24
2019-06-20T03:43:59.001Z,27.23
2019-06-20T03:45:02.219Z,27.22
2019-06-20T03:45:55.725Z,27.23
2019-06-20T03:46:55.326Z,27.23
2019-06-20T03:47:54.869Z,27.23
2019-06-20T03:48:54.398Z,27.22
2019-06-20T03:49:54.079Z,27.23
2019-06-20T03:50:53.711Z,27.23
2019-06-20T03:51:53.311Z,27.22
2019-06-20T03:52:52.875Z,27.23
2019-06-20T03:53:52.481Z,27.23
2019-06-20T03:54:52.079Z,27.22
2019-06-20T03:55:51.581Z,27.21
2019-06-20T03:56:51.161Z,27.22
2019-06-20T03:57:50.566Z,27.23
2019-06-20T03:58:50.277Z,27.23
2019-06-20T03:59:49.838Z,27.21
2019-06-20T04:00:49.518Z,27.21
2019-06-20T04:01:49.349Z,27.23
2019-06-20T04:02:48.671Z,27.21
2019-06-20T04:03:48.261Z,27.21
2019-06-20T04:04:47.864Z,27.22
2019-06-20T04:05:47.432Z,27.20
2019-06-20T04:06:46.887Z,27.21
2019-06-20T04:07:46.379Z,27.20
2019-06-20T04:08:46.061Z,27.21
2019-06-20T04:09:45.608Z,27.21
2019-06-20T04:10:45.307Z,27.19
2019-06-20T04:11:44.883Z,27.20
2019-06-20T04:12:44.466Z,27.20
2019-06-20T04:13:44.039Z,27.20
2019-06-20T04:14:43.575Z,27.20
2019-06-20T04:15:43.153Z,27.19
2019-06-20T04:16:42.767Z,27.20
2019-06-20T04:17:42.347Z,27.19
2019-06-20T04:18:41.991Z,27.19
2019-06-20T04:19:41.478Z,27.20
2019-06-20T04:20:41.056Z,27.19
2019-06-20T04:21:40.668Z,27.20
2019-06-20T04:22:40.169Z,27.19
2019-06-20T04:23:39.797Z,27.18
2019-06-20T04:24:39.387Z,27.19
2019-06-20T04:25:39.015Z,27.19
2019-06-20T04:26:38.667Z,27.18
2019-06-20T04:27:38.157Z,27.19
2019-06-20T04:28:37.771Z,27.19
2019-06-20T04:29:37.342Z,27.19
2019-06-20T04:30:36.906Z,27.18
2019-06-20T04:31:36.465Z,27.19
2019-06-20T04:32:36.063Z,27.19
2019-06-20T04:33:35.625Z,27.16
2019-06-20T04:34:35.202Z,27.18
2019-06-20T04:35:34.848Z,27.18
2019-06-20T04:36:34.408Z,27.18
2019-06-20T04:37:34.102Z,27.17
2019-06-20T04:38:33.605Z,27.18
2019-06-20T04:39:33.188Z,27.18
2019-06-20T04:40:32.719Z,27.18
2019-06-20T04:41:32.290Z,27.18
2019-06-20T04:42:31.828Z,27.18
2019-06-20T04:43:31.385Z,27.18
2019-06-20T04:44:31.034Z,27.17
2019-06-20T04:45:35.042Z,27.16
2019-06-20T04:46:30.231Z,27.17
2019-06-20T04:47:29.775Z,27.17
2019-06-20T04:48:29.368Z,27.17
2019-06-20T04:49:29.002Z,27.16
2019-06-20T04:50:28.637Z,27.17
2019-06-20T04:51:28.092Z,27.19
2019-06-20T04:52:27.662Z,27.18
2019-06-20T04:53:27.275Z,27.17
2019-06-20T04:54:26.887Z,27.16
2019-06-20T04:55:26.379Z,27.18
2019-06-20T04:56:26.021Z,27.16
2019-06-20T04:57:25.523Z,27.15
2019-06-20T04:58:25.073Z,27.17
2019-06-20T04:59:24.700Z,27.18
2019-06-20T05:00:24.273Z,27.18
2019-06-20T05:01:23.850Z,27.17
2019-06-20T05:02:23.430Z,27.17
2019-06-20T05:03:23.072Z,27.17
2019-06-20T05:04:22.605Z,27.17
2019-06-20T05:05:22.200Z,27.16
2019-06-20T05:06:21.746Z,27.17
2019-06-20T05:07:21.295Z,27.17
2019-06-20T05:08:20.679Z,27.17
2019-06-20T05:09:20.391Z,27.17
2019-06-20T05:10:19.999Z,27.17
2019-06-20T05:11:19.537Z,27.18
2019-06-20T05:12:19.077Z,27.18
2019-06-20T05:13:18.726Z,27.17
2019-06-20T05:14:18.349Z,27.18
2019-06-20T05:15:17.902Z,27.18
2019-06-20T05:16:19.293Z,27.17
2019-06-20T05:17:18.312Z,27.18
2019-06-20T05:18:17.853Z,27.18
2019-06-20T05:19:17.455Z,27.18
2019-06-20T05:20:17.008Z,27.18
2019-06-20T05:21:16.693Z,27.18
2019-06-20T05:22:16.175Z,27.18
2019-06-20T05:23:15.775Z,27.18
2019-06-20T05:24:15.318Z,27.18
2019-06-20T05:25:14.970Z,27.18
2019-06-20T05:26:14.547Z,27.19
2019-06-20T05:27:14.307Z,27.17
2019-06-20T05:28:13.885Z,27.18
2019-06-20T05:29:13.417Z,27.18
2019-06-20T05:30:13.015Z,27.18
2019-06-20T05:31:12.576Z,27.18
2019-06-20T05:32:12.144Z,27.19
2019-06-20T05:33:11.722Z,27.18
2019-06-20T05:34:11.308Z,27.18
2019-06-20T05:35:10.843Z,27.18
2019-06-20T05:36:10.425Z,27.19
2019-06-20T05:37:10.093Z,27.18
2019-06-20T05:38:09.672Z,27.19
2019-06-20T05:39:09.323Z,27.19
2019-06-20T05:40:08.839Z,27.19
2019-06-20T05:41:08.400Z,27.18
2019-06-20T05:42:08.008Z,27.18
2019-06-20T05:43:07.581Z,27.19
2019-06-20T05:44:07.214Z,27.18
2019-06-20T05:45:06.730Z,27.19
2019-06-20T05:46:10.760Z,27.19
2019-06-20T05:47:12.507Z,27.18
2019-06-20T05:48:05.614Z,27.18
2019-06-20T05:49:05.190Z,27.19
2019-06-20T05:50:06.560Z,27.18
2019-06-20T05:51:06.316Z,27.19
2019-06-20T05:52:05.005Z,27.19
2019-06-20T05:53:04.484Z,27.20
2019-06-20T05:54:04.482Z,27.18
2019-06-20T05:55:03.560Z,27.19
2019-06-20T05:56:03.040Z,27.21
2019-06-20T05:57:03.751Z,27.20
2019-06-20T05:58:02.269Z,27.19
2019-06-20T05:59:01.849Z,27.19
2019-06-20T06:00:01.551Z,27.18
2019-06-20T06:01:01.069Z,27.20
2019-06-20T06:02:00.672Z,27.18
2019-06-20T06:03:00.291Z,27.20
2019-06-20T06:03:59.902Z,27.21
2019-06-20T06:04:59.387Z,27.20
2019-06-20T06:05:58.944Z,27.20
2019-06-20T06:06:58.537Z,27.19
2019-06-20T06:07:58.499Z,27.21
2019-06-20T06:08:57.707Z,27.20
2019-06-20T06:09:57.262Z,27.19
2019-06-20T06:10:56.941Z,27.21
2019-06-20T06:11:56.504Z,27.20
2019-06-20T06:12:56.070Z,27.20
2019-06-20T06:13:56.286Z,27.20
2019-06-20T06:14:55.285Z,27.20
2019-06-20T06:15:54.901Z,27.20
2019-06-20T06:16:54.426Z,27.20
2019-06-20T06:17:54.029Z,27.21
2019-06-20T06:18:53.419Z,27.21
2019-06-20T06:19:53.059Z,27.20
2019-06-20T06:20:52.629Z,27.20
2019-06-20T06:21:52.175Z,27.18
2019-06-20T06:22:51.754Z,27.21
2019-06-20T06:23:51.293Z,27.21
2019-06-20T06:24:50.875Z,27.20
2019-06-20T06:25:50.426Z,27.20
2019-06-20T06:26:49.999Z,27.21
2019-06-20T06:27:49.658Z,27.20
2019-06-20T06:28:49.073Z,27.22
2019-06-20T06:29:48.682Z,27.20
2019-06-20T06:30:48.284Z,27.23
2019-06-20T06:31:47.597Z,27.22
2019-06-20T06:32:47.158Z,27.22
2019-06-20T06:33:46.783Z,27.21
2019-06-20T06:34:46.369Z,27.22
2019-06-20T06:35:45.977Z,27.22
2019-06-20T06:36:45.637Z,27.22
2019-06-20T06:37:45.104Z,27.22
2019-06-20T06:38:44.725Z,27.22
2019-06-20T06:39:44.114Z,27.23
2019-06-20T06:40:43.636Z,27.23
2019-06-20T06:41:43.318Z,27.22
2019-06-20T06:42:42.893Z,27.21
2019-06-20T06:43:42.378Z,27.23
2019-06-20T06:44:41.799Z,27.23
2019-06-20T06:45:41.290Z,27.23
2019-06-20T06:46:47.157Z,27.14
2019-06-20T06:47:40.312Z,27.04
2019-06-20T06:48:39.814Z,26.99
2019-06-20T06:49:39.760Z,26.87
2019-06-20T06:50:38.857Z,26.81
2019-06-20T06:51:38.419Z,26.75
2019-06-20T06:52:37.930Z,26.71
2019-06-20T06:53:37.424Z,26.74
2019-06-20T06:54:36.913Z,26.74
2019-06-20T06:55:36.483Z,26.69
2019-06-20T06:56:35.988Z,26.67
2019-06-20T06:57:35.467Z,26.64
2019-06-20T06:58:34.969Z,26.64
2019-06-20T06:59:34.658Z,26.61
2019-06-20T07:00:34.176Z,26.60
2019-06-20T07:01:33.979Z,26.58
2019-06-20T07:02:33.554Z,26.58
2019-06-20T07:03:33.090Z,26.58
2019-06-20T07:04:32.449Z,26.60
2019-06-20T07:05:32.753Z,26.64
2019-06-20T07:06:32.213Z,26.73
2019-06-20T07:07:32.335Z,26.82
2019-06-20T07:08:31.658Z,26.90
2019-06-20T07:09:31.091Z,26.94
2019-06-20T07:10:30.737Z,26.96
2019-06-20T07:11:30.156Z,26.98
2019-06-20T07:12:29.857Z,27.00
2019-06-20T07:13:29.494Z,27.02
2019-06-20T07:14:29.092Z,27.02
2019-06-20T07:15:28.717Z,27.03
2019-06-20T07:16:28.248Z,27.05
2019-06-20T07:17:27.846Z,27.05
2019-06-20T07:18:27.501Z,27.06
2019-06-20T07:19:26.845Z,27.07
2019-06-20T07:20:26.376Z,27.09
2019-06-20T07:21:25.932Z,27.09
2019-06-20T07:22:25.568Z,27.07
2019-06-20T07:23:25.175Z,27.10
2019-06-20T07:24:24.790Z,27.12
2019-06-20T07:25:24.206Z,27.13
2019-06-20T07:26:23.682Z,27.13
2019-06-20T07:27:23.403Z,27.13
2019-06-20T07:28:22.782Z,27.15
2019-06-20T07:29:22.501Z,27.15
2019-06-20T07:30:22.066Z,27.16
2019-06-20T07:31:21.384Z,27.15
2019-06-20T07:32:21.085Z,27.16
2019-06-20T07:33:20.736Z,27.17
2019-06-20T07:34:20.254Z,27.17
2019-06-20T07:35:19.852Z,27.18
2019-06-20T07:36:19.311Z,27.19
2019-06-20T07:37:19.042Z,27.20
2019-06-20T07:38:18.533Z,27.22
2019-06-20T07:39:18.093Z,27.25
2019-06-20T07:40:17.456Z,27.25
2019-06-20T07:41:17.105Z,27.29
2019-06-20T07:42:16.722Z,27.27
2019-06-20T07:43:16.130Z,27.28
2019-06-20T07:44:15.605Z,27.30
2019-06-20T07:45:15.245Z,27.31
2019-06-20T07:46:14.812Z,27.35
2019-06-20T07:47:17.892Z,27.34
2019-06-20T07:48:14.058Z,27.34
2019-06-20T07:49:13.692Z,27.27
2019-06-20T07:50:13.250Z,27.27
2019-06-20T07:51:12.812Z,27.27
2019-06-20T07:52:12.404Z,27.30
2019-06-20T07:53:11.970Z,27.28
2019-06-20T07:54:11.497Z,27.31
2019-06-20T07:55:11.097Z,27.30
2019-06-20T07:56:10.729Z,27.35
2019-06-20T07:57:10.300Z,27.37
2019-06-20T07:58:09.923Z,27.38
2019-06-20T07:59:09.459Z,27.40
2019-06-20T08:00:09.030Z,27.40
2019-06-20T08:01:08.660Z,27.41
2019-06-20T08:02:08.229Z,27.42
2019-06-20T08:03:07.765Z,27.44
2019-06-20T08:04:07.376Z,27.48
2019-06-20T08:05:06.927Z,27.46
2019-06-20T08:06:06.551Z,27.46
2019-06-20T08:07:06.055Z,27.47
2019-06-20T08:08:05.616Z,27.44
2019-06-20T08:09:05.183Z,27.45
2019-06-20T08:10:04.896Z,27.43
2019-06-20T08:11:04.318Z,27.42
2019-06-20T08:12:03.904Z,27.41
2019-06-20T08:13:03.478Z,27.40
2019-06-20T08:14:03.054Z,27.38
2019-06-20T08:15:14.456Z,27.38
2019-06-20T08:16:03.904Z,27.38
2019-06-20T08:17:01.887Z,27.36
2019-06-20T08:18:01.503Z,27.36
2019-06-20T08:19:01.083Z,27.38
2019-06-20T08:20:00.652Z,27.37
2019-06-20T08:21:00.148Z,27.33
2019-06-20T08:21:59.713Z,27.34
2019-06-20T08:22:59.262Z,27.35
2019-06-20T08:23:58.801Z,27.37
2019-06-20T08:24:59.076Z,27.33
2019-06-20T08:25:59.240Z,27.33
2019-06-20T08:26:58.744Z,27.33
2019-06-20T08:27:57.855Z,27.34
2019-06-20T08:29:10.298Z,27.33
2019-06-20T08:29:56.581Z,27.35
2019-06-20T08:30:56.103Z,27.35
2019-06-20T08:31:55.960Z,27.35
2019-06-20T08:32:57.441Z,27.37
2019-06-20T08:33:54.101Z,27.40
2019-06-20T08:34:53.905Z,27.40
2019-06-20T08:35:53.261Z,27.41
2019-06-20T08:36:52.699Z,27.41
2019-06-20T08:37:52.215Z,27.42
2019-06-20T08:38:51.738Z,27.41
2019-06-20T08:39:51.255Z,27.41
2019-06-20T08:40:50.990Z,27.35
2019-06-20T08:41:50.402Z,27.11
2019-06-20T08:42:49.931Z,27.05
2019-06-20T08:43:49.408Z,27.02
2019-06-20T08:44:48.986Z,26.91
2019-06-20T08:45:48.494Z,26.89
2019-06-20T08:46:47.997Z,26.99
2019-06-20T08:47:47.541Z,27.08
2019-06-20T08:48:47.039Z,27.15
2019-06-20T08:49:46.580Z,27.18
2019-06-20T08:50:46.065Z,27.20
2019-06-20T08:51:45.620Z,27.24
2019-06-20T08:52:45.249Z,27.25
2019-06-20T08:53:44.672Z,27.26
2019-06-20T08:54:44.129Z,27.28
2019-06-20T08:55:43.643Z,27.31
2019-06-20T08:56:46.089Z,27.30
2019-06-20T08:57:44.753Z,27.29
2019-06-20T08:58:44.240Z,27.26
2019-06-20T08:59:43.793Z,27.24
2019-06-20T09:00:43.492Z,27.24
2019-06-20T09:01:42.945Z,27.27
2019-06-20T09:02:42.523Z,27.25
2019-06-20T09:03:42.110Z,27.25
2019-06-20T09:04:41.740Z,27.25
2019-06-20T09:05:41.385Z,27.24
2019-06-20T09:06:40.891Z,27.23
2019-06-20T09:07:41.825Z,27.25
2019-06-20T09:08:40.024Z,27.28
2019-06-20T09:09:39.748Z,27.27
2019-06-20T09:10:39.209Z,27.29
2019-06-20T09:11:38.815Z,27.29
2019-06-20T09:12:38.300Z,27.29
2019-06-20T09:13:40.494Z,27.28
2019-06-20T09:14:37.408Z,27.27
2019-06-20T09:15:36.872Z,27.30
2019-06-20T09:16:36.529Z,27.30
2019-06-20T09:17:36.156Z,27.31
2019-06-20T09:18:35.692Z,27.32
2019-06-20T09:19:35.312Z,27.30
2019-06-20T09:20:34.838Z,27.31
2019-06-20T09:21:34.452Z,27.31
2019-06-20T09:22:34.052Z,27.32
2019-06-20T09:23:35.695Z,27.31
2019-06-20T09:24:33.106Z,27.32
2019-06-20T09:25:35.626Z,27.31
2019-06-20T09:26:34.238Z,27.32
2019-06-20T09:27:33.977Z,27.33
2019-06-20T09:28:33.538Z,27.33
2019-06-20T09:29:41.805Z,27.33
2019-06-20T09:30:32.644Z,27.33
2019-06-20T09:31:32.244Z,27.36
2019-06-20T09:32:31.808Z,27.35
2019-06-20T09:33:31.501Z,27.35
2019-06-20T09:34:31.040Z,27.37
2019-06-20T09:35:30.590Z,27.38
2019-06-20T09:36:30.119Z,27.38
2019-06-20T09:37:29.775Z,27.41
2019-06-20T09:38:29.276Z,27.45
2019-06-20T09:39:28.818Z,27.47
2019-06-20T09:40:28.446Z,27.48
2019-06-20T09:41:28.024Z,27.51
2019-06-20T09:42:27.655Z,27.52
2019-06-20T09:43:28.085Z,27.53
2019-06-20T09:44:26.735Z,27.55
2019-06-20T09:45:26.322Z,27.57
2019-06-20T09:46:25.868Z,27.58
2019-06-20T09:47:25.525Z,27.61
2019-06-20T09:48:24.827Z,27.60
2019-06-20T09:49:24.508Z,27.58
2019-06-20T09:50:24.119Z,27.59
2019-06-20T09:51:23.697Z,27.60
2019-06-20T09:52:23.312Z,27.63
2019-06-20T09:53:22.960Z,27.66
2019-06-20T09:54:22.569Z,27.68
2019-06-20T09:55:22.182Z,27.68
2019-06-20T09:56:21.789Z,27.68
2019-06-20T09:57:21.421Z,27.70
2019-06-20T09:58:21.078Z,27.69
2019-06-20T09:59:27.527Z,27.69
2019-06-20T10:00:20.266Z,27.68
2019-06-20T10:01:19.958Z,27.67
2019-06-20T10:02:19.573Z,27.67
2019-06-20T10:03:19.191Z,27.68
2019-06-20T10:04:21.531Z,27.68
2019-06-20T10:05:18.408Z,27.64
2019-06-20T10:06:17.970Z,27.64
2019-06-20T10:07:17.603Z,27.66
2019-06-20T10:08:17.193Z,27.64
2019-06-20T10:09:16.817Z,27.64
2019-06-20T10:10:16.448Z,27.67
2019-06-20T10:11:15.947Z,27.68
2019-06-20T10:12:15.531Z,27.66
2019-06-20T10:13:15.167Z,27.66
2019-06-20T10:14:14.799Z,27.67
2019-06-20T10:15:14.090Z,27.67
2019-06-20T10:16:13.991Z,27.64
2019-06-20T10:17:13.491Z,27.64
2019-06-20T10:18:12.897Z,27.64
2019-06-20T10:19:13.445Z,27.62
2019-06-20T10:20:11.944Z,27.60
2019-06-20T10:21:14.366Z,27.59
2019-06-20T10:22:13.006Z,27.57
2019-06-20T10:23:12.690Z,27.53
2019-06-20T10:24:14.996Z,27.53
2019-06-20T10:25:13.694Z,27.50
2019-06-20T10:26:13.583Z,27.50
2019-06-20T10:27:12.923Z,27.50
2019-06-20T10:28:12.390Z,27.49
2019-06-20T10:29:11.855Z,27.52
2019-06-20T10:30:14.618Z,27.51
2019-06-20T10:31:10.899Z,27.53
2019-06-20T10:32:10.644Z,27.52
2019-06-20T10:33:10.019Z,27.54
2019-06-20T10:34:09.513Z,27.55
2019-06-20T10:35:08.964Z,27.55
2019-06-20T10:36:08.674Z,27.55
2019-06-20T10:37:08.340Z,27.52
2019-06-20T10:38:07.933Z,27.51
2019-06-20T10:39:07.514Z,27.52
2019-06-20T10:40:07.022Z,27.50
2019-06-20T10:41:06.451Z,27.47
2019-06-20T10:42:06.194Z,27.48
2019-06-20T10:43:05.816Z,27.46
2019-06-20T10:44:08.281Z,27.47
2019-06-20T10:45:07.510Z,27.48
2019-06-20T10:46:06.892Z,27.50
2019-06-20T10:47:06.504Z,27.52
2019-06-20T10:48:06.065Z,27.50
2019-06-20T10:49:05.618Z,27.50
2019-06-20T10:50:05.296Z,27.51
2019-06-20T10:51:04.779Z,27.53
2019-06-20T10:52:04.190Z,27.53
2019-06-20T10:53:03.835Z,27.48
2019-06-20T10:54:03.379Z,27.51
2019-06-20T10:55:03.051Z,27.49
2019-06-20T10:56:02.560Z,27.51
2019-06-20T10:57:02.104Z,27.50
2019-06-20T10:58:01.697Z,27.52
2019-06-20T10:59:01.310Z,27.52
2019-06-20T11:00:00.974Z,27.53
2019-06-20T11:01:00.535Z,27.56
2019-06-20T11:02:00.208Z,27.59
2019-06-20T11:02:59.803Z,27.60
2019-06-20T11:03:59.430Z,27.58
2019-06-20T11:04:58.972Z,27.57
2019-06-20T11:05:58.808Z,27.59
2019-06-20T11:06:58.283Z,27.55
2019-06-20T11:07:57.693Z,27.55
2019-06-20T11:08:57.343Z,27.56
2019-06-20T11:09:57.041Z,27.56
2019-06-20T11:10:56.710Z,27.58
2019-06-20T11:11:56.312Z,27.57
2019-06-20T11:12:56.475Z,27.61
2019-06-20T11:13:55.261Z,27.58
2019-06-20T11:14:55.053Z,27.61
2019-06-20T11:15:54.627Z,27.61
2019-06-20T11:16:54.233Z,27.61
2019-06-20T11:17:56.367Z,27.61
2019-06-20T11:18:53.413Z,27.61
2019-06-20T11:19:53.127Z,27.63
2019-06-20T11:20:52.711Z,27.63
2019-06-20T11:21:52.113Z,27.62
2019-06-20T11:22:51.627Z,27.64
2019-06-20T11:23:51.173Z,27.65
2019-06-20T11:24:50.922Z,27.64
2019-06-20T11:25:50.302Z,27.65
2019-06-20T11:26:50.134Z,27.67
2019-06-20T11:27:49.689Z,27.67
2019-06-20T11:28:49.031Z,27.67
2019-06-20T11:29:48.722Z,27.68
2019-06-20T11:30:59.582Z,27.70
2019-06-20T11:31:48.261Z,27.71
2019-06-20T11:32:48.763Z,27.70
2019-06-20T11:33:46.789Z,27.68
2019-06-20T11:34:47.566Z,27.71
2019-06-20T11:35:46.058Z,27.71
2019-06-20T11:36:46.760Z,27.71
2019-06-20T11:37:45.246Z,27.70
2019-06-20T11:38:44.729Z,27.72
2019-06-20T11:39:44.322Z,27.70
2019-06-20T11:40:44.009Z,27.70
2019-06-20T11:41:43.712Z,27.70
2019-06-20T11:42:44.595Z,27.71
2019-06-20T11:43:42.739Z,27.70
2019-06-20T11:44:43.094Z,27.71
2019-06-20T11:45:43.064Z,27.72
2019-06-20T11:46:42.620Z,27.73
2019-06-20T11:47:42.468Z,27.73
2019-06-20T11:48:40.741Z,27.74
2019-06-20T11:49:40.450Z,27.76
2019-06-20T11:50:40.056Z,27.72
2019-06-20T11:51:39.856Z,27.76
2019-06-20T11:52:42.441Z,27.76
2019-06-20T11:53:38.616Z,27.76
2019-06-20T11:54:38.291Z,27.76
2019-06-20T11:55:37.777Z,27.76
2019-06-20T11:56:37.468Z,27.77
2019-06-20T11:57:36.860Z,27.77
2019-06-20T11:58:36.371Z,27.77
2019-06-20T11:59:35.886Z,27.78
2019-06-20T12:00:35.424Z,27.78
2019-06-20T12:01:34.902Z,27.79
2019-06-20T12:02:34.397Z,27.80
2019-06-20T12:03:33.884Z,27.80
2019-06-20T12:04:33.405Z,27.80
2019-06-20T12:05:32.939Z,27.81
2019-06-20T12:06:32.462Z,27.83
2019-06-20T12:07:31.941Z,27.82
2019-06-20T12:08:31.552Z,27.82
2019-06-20T12:09:31.063Z,27.83
2019-06-20T12:10:30.526Z,27.82
2019-06-20T12:11:30.226Z,27.83
2019-06-20T12:12:29.589Z,27.84
2019-06-20T12:13:29.034Z,27.84
2019-06-20T12:14:28.853Z,27.84
2019-06-20T12:15:28.471Z,27.86
2019-06-20T12:16:28.132Z,27.86
2019-06-20T12:17:27.455Z,27.88
2019-06-20T12:19:26.453Z,27.88
2019-06-20T12:20:26.237Z,27.86
2019-06-20T12:21:25.602Z,27.85
2019-06-20T12:22:25.084Z,27.84
2019-06-20T12:23:24.755Z,27.84
2019-06-20T12:24:24.163Z,27.84
2019-06-20T12:25:23.901Z,27.83
2019-06-20T12:26:23.582Z,27.83
2019-06-20T12:27:23.004Z,27.83
2019-06-20T12:28:22.735Z,27.82
2019-06-20T12:29:22.132Z,27.82
2019-06-20T12:30:21.656Z,27.82
2019-06-20T12:31:21.171Z,27.82
2019-06-20T12:32:20.701Z,27.82
2019-06-20T12:33:20.217Z,27.82
2019-06-20T12:34:19.736Z,27.82
2019-06-20T12:35:19.159Z,27.82
2019-06-20T12:36:18.546Z,27.82
2019-06-20T12:37:18.029Z,27.83
2019-06-20T12:38:17.554Z,27.82
2019-06-20T12:39:17.328Z,27.82
2019-06-20T12:40:16.670Z,27.82
2019-06-20T12:41:16.201Z,27.83
2019-06-20T12:42:15.690Z,27.84
2019-06-20T12:43:15.201Z,27.83
2019-06-20T12:44:14.700Z,27.83
2019-06-20T12:45:14.333Z,27.82
2019-06-20T12:46:13.787Z,27.84
2019-06-20T12:47:13.307Z,27.84
2019-06-20T12:48:12.975Z,27.82
2019-06-20T12:49:12.374Z,27.84